Time;durP1;ratioP1;P1;durP2;ratioP2;P2;SDS_P1;SDS_P2;PMS_P1;PMS_P2;Temp;Humidity;BMP_temperature;BMP_pressure;BME280_temperature;BME280_humidity;BME280_pressure;Samples;Min_cycle;Max_cycle;Signal;HPM_P1;HPM_P2
2021/10/27 00:00:38;;;;;;;;;;;13.30;99.90;;;;;;4992713;28;19920;-85
2021/10/27 00:03:03;;;;;;;;;;;13.30;99.90;;;;;;4987520;28;20031;-84
2021/10/27 00:05:29;;;;;;;;;;;13.40;99.90;;;;;;5015457;28;19980;-85
2021/10/27 00:07:55;;;;;;;;;;;13.30;99.90;;;;;;5024325;28;20321;-84
2021/10/27 00:10:21;;;;;;;;;;;13.30;99.90;;;;;;5025329;28;19925;-84
2021/10/27 00:12:46;;;;;;;;;;;13.40;99.90;;;;;;5009354;28;19983;-85
2021/10/27 00:15:14;;;;;;;;;;;13.40;99.90;;;;;;5008162;28;20351;-84
2021/10/27 00:17:40;;;;;;;;;;;13.30;99.90;;;;;;5025325;28;19975;-84
2021/10/27 00:20:06;;;;;;;;;;;13.30;99.90;;;;;;5024725;28;20361;-84
2021/10/27 00:22:31;;;;;;;;;;;13.30;99.90;;;;;;5025184;28;19967;-85
2021/10/27 00:24:57;;;;;;;;;;;13.30;99.90;;;;;;5008359;28;19922;-85
2021/10/27 00:27:23;;;;;;;;;;;13.40;99.90;;;;;;5025236;28;19921;-85
2021/10/27 00:29:48;;;;;;;;;;;13.40;99.90;;;;;;5008197;28;19972;-84
2021/10/27 00:32:14;;;;;;;;;;;13.40;99.90;;;;;;5025002;28;19928;-85
2021/10/27 00:34:40;;;;;;;;;;;13.40;99.90;;;;;;5009497;28;19983;-85
2021/10/27 00:37:05;;;;;;;;;;;13.30;99.90;;;;;;5024266;28;19921;-84
2021/10/27 00:39:32;;;;;;;;;;;13.40;99.90;;;;;;5025388;28;19925;-85
2021/10/27 00:41:58;;;;;;;;;;;13.40;99.90;;;;;;5008046;28;19924;-86
2021/10/27 00:44:24;;;;;;;;;;;13.40;99.90;;;;;;5025466;28;20231;-85
2021/10/27 00:47:00;;;;;;;;;;;13.40;99.90;;;;;;5024278;28;19929;-84
2021/10/27 00:49:27;;;;;;;;;;;13.40;99.90;;;;;;5008166;28;20424;-84
2021/10/27 00:51:52;;;;;;;;;;;13.50;99.90;;;;;;5009270;28;19928;-84
2021/10/27 00:54:18;;;;;;;;;;;13.50;99.90;;;;;;5007485;28;20039;-84
2021/10/27 00:56:44;;;;;;;;;;;13.50;99.90;;;;;;5009181;28;19933;-84
2021/10/27 00:59:10;;;;;;;;;;;13.60;99.90;;;;;;5023821;28;19925;-84
2021/10/27 01:01:36;;;;;;;;;;;13.50;99.90;;;;;;5008395;28;19920;-84
2021/10/27 01:04:02;;;;;;;;;;;13.50;99.90;;;;;;4991914;28;19994;-85
2021/10/27 01:06:28;;;;;;;;;;;13.60;99.90;;;;;;5027671;28;19920;-85
2021/10/27 01:08:53;;;;;;;;;;;13.50;99.90;;;;;;5012339;28;19921;-85
2021/10/27 01:11:19;;;;;;;;;;;13.50;99.90;;;;;;5027827;28;19931;-86
2021/10/27 01:13:47;;;;;;;;;;;13.50;99.90;;;;;;5012627;28;20379;-85
2021/10/27 01:16:13;;;;;;;;;;;13.60;99.90;;;;;;5011061;28;19932;-86
2021/10/27 01:18:38;;;;;;;;;;;13.60;99.90;;;;;;5029263;28;19921;-86
2021/10/27 01:21:04;;;;;;;;;;;13.60;99.90;;;;;;5011014;28;20339;-86
2021/10/27 01:23:29;;;;;;;;;;;13.60;99.90;;;;;;5012267;28;19921;-85
2021/10/27 01:25:58;;;;;;;;;;;13.60;99.90;;;;;;5027766;28;20290;-86
2021/10/27 01:28:24;;;;;;;;;;;13.60;99.90;;;;;;5027886;28;19920;-85
2021/10/27 01:30:50;;;;;;;;;;;13.60;99.90;;;;;;5011993;28;20276;-84
2021/10/27 01:33:16;;;;;;;;;;;13.60;99.90;;;;;;5010778;28;19947;-84
2021/10/27 01:35:42;;;;;;;;;;;13.60;99.90;;;;;;5029248;28;20295;-83
2021/10/27 01:38:08;;;;;;;;;;;13.60;99.90;;;;;;5010423;28;20374;-83
2021/10/27 01:40:33;;;;;;;;;;;13.60;99.90;;;;;;5027974;28;19921;-84
2021/10/27 01:42:59;;;;;;;;;;;13.60;99.90;;;;;;5010774;28;19983;-84
2021/10/27 01:45:29;;;;;;;;;;;13.60;99.90;;;;;;5028319;28;19925;-86
2021/10/27 01:47:55;;;;;;;;;;;13.60;99.90;;;;;;5027991;28;19931;-86
2021/10/27 01:50:20;;;;;;;;;;;13.70;99.90;;;;;;5027135;28;19925;-85
2021/10/27 01:52:46;;;;;;;;;;;13.70;99.90;;;;;;5011555;28;20417;-86
2021/10/27 01:55:12;;;;;;;;;;;13.70;99.90;;;;;;4994486;28;19924;-86
2021/10/27 01:57:37;;;;;;;;;;;13.60;99.90;;;;;;5027956;28;20011;-86
2021/10/27 02:00:05;;;;;;;;;;;13.70;99.90;;;;;;5026619;28;20395;-86
2021/10/27 02:02:31;;;;;;;;;;;13.70;99.90;;;;;;5010603;28;19924;-85
2021/10/27 02:04:56;;;;;;;;;;;13.70;99.90;;;;;;5011197;28;20434;-85
2021/10/27 02:07:22;;;;;;;;;;;13.70;99.90;;;;;;5010659;28;20333;-86
2021/10/27 02:09:47;;;;;;;;;;;13.70;99.90;;;;;;5027700;28;19947;-85
2021/10/27 02:12:13;;;;;;;;;;;13.70;99.90;;;;;;5026544;28;19921;-86
2021/10/27 02:14:39;;;;;;;;;;;13.70;99.90;;;;;;5027572;28;19975;-85
2021/10/27 02:17:05;;;;;;;;;;;13.70;99.90;;;;;;5009597;28;19932;-86
2021/10/27 02:19:30;;;;;;;;;;;13.70;99.90;;;;;;5027697;28;19921;-86
2021/10/27 02:21:56;;;;;;;;;;;13.70;99.90;;;;;;5010129;28;19936;-85
2021/10/27 02:24:21;;;;;;;;;;;13.70;99.90;;;;;;5027018;28;19920;-85
2021/10/27 02:26:47;;;;;;;;;;;13.70;99.90;;;;;;5027106;28;19928;-86
2021/10/27 02:29:13;;;;;;;;;;;13.70;99.90;;;;;;5010000;28;19921;-85
2021/10/27 02:31:38;;;;;;;;;;;13.70;99.90;;;;;;5027390;28;19925;-86
2021/10/27 02:34:04;;;;;;;;;;;13.70;99.90;;;;;;5009698;28;20369;-83
2021/10/27 02:36:30;;;;;;;;;;;13.80;99.90;;;;;;5010496;28;19971;-83
2021/10/27 02:38:56;;;;;;;;;;;13.80;99.90;;;;;;5026260;28;19928;-84
2021/10/27 02:41:22;;;;;;;;;;;13.80;99.90;;;;;;5010897;28;19921;-84
2021/10/27 02:43:47;;;;;;;;;;;13.80;99.90;;;;;;5026426;28;20390;-84
2021/10/27 02:46:13;;;;;;;;;;;13.80;99.90;;;;;;5010640;28;19924;-85
2021/10/27 02:48:39;;;;;;;;;;;13.80;99.90;;;;;;5010660;28;20283;-84
2021/10/27 02:51:04;;;;;;;;;;;13.80;99.90;;;;;;5009982;28;19925;-85
2021/10/27 02:53:30;;;;;;;;;;;13.90;99.90;;;;;;4993943;28;19946;-85
2021/10/27 02:55:56;;;;;;;;;;;13.90;99.90;;;;;;5009394;28;20420;-83
2021/10/27 02:58:22;;;;;;;;;;;13.80;99.90;;;;;;5010545;28;19921;-83
2021/10/27 03:00:47;;;;;;;;;;;13.80;99.90;;;;;;5025945;28;20429;-83
2021/10/27 03:03:13;;;;;;;;;;;13.80;99.90;;;;;;5026407;28;19996;-84
2021/10/27 03:05:38;;;;;;;;;;;13.80;99.90;;;;;;5026122;28;19928;-85
2021/10/27 03:08:04;;;;;;;;;;;13.80;99.90;;;;;;5026013;28;19921;-85
2021/10/27 03:10:30;;;;;;;;;;;13.70;99.90;;;;;;5026369;28;19951;-85
2021/10/27 03:12:55;;;;;;;;;;;13.80;99.90;;;;;;5009121;28;19959;-84
2021/10/27 03:15:21;;;;;;;;;;;13.70;99.90;;;;;;5010538;28;20007;-83
2021/10/27 03:17:47;;;;;;;;;;;13.70;99.90;;;;;;5008877;28;20397;-85
2021/10/27 03:20:12;;;;;;;;;;;13.80;99.90;;;;;;5010342;28;19983;-84
2021/10/27 03:22:38;;;;;;;;;;;13.70;99.90;;;;;;5025482;28;20007;-85
2021/10/27 03:25:04;;;;;;;;;;;13.80;99.90;;;;;;5009317;28;20636;-85
2021/10/27 03:27:30;;;;;;;;;;;13.80;99.90;;;;;;5025418;28;19925;-85
2021/10/27 03:29:55;;;;;;;;;;;13.80;99.90;;;;;;5009295;28;19921;-85
2021/10/27 03:32:21;;;;;;;;;;;13.80;99.90;;;;;;5026896;28;19928;-85
2021/10/27 03:34:48;;;;;;;;;;;13.80;99.90;;;;;;5008382;28;19921;-85
2021/10/27 03:37:14;;;;;;;;;;;13.80;99.90;;;;;;5026356;28;19991;-84
2021/10/27 03:39:40;;;;;;;;;;;13.80;99.90;;;;;;5025130;28;20751;-84
2021/10/27 03:42:06;;;;;;;;;;;13.80;99.90;;;;;;5026661;28;19920;-84
2021/10/27 03:44:32;;;;;;;;;;;13.80;99.90;;;;;;5025770;28;20290;-84
2021/10/27 03:46:57;;;;;;;;;;;13.80;99.90;;;;;;5008633;28;20180;-85
2021/10/27 03:49:23;;;;;;;;;;;13.80;99.90;;;;;;5026423;28;19921;-84
2021/10/27 03:51:49;;;;;;;;;;;13.80;99.90;;;;;;5023989;28;19924;-85
2021/10/27 03:54:15;;;;;;;;;;;13.80;99.90;;;;;;5008151;28;19929;-84
2021/10/27 03:56:41;;;;;;;;;;;13.80;99.90;;;;;;5023249;28;19925;-84
2021/10/27 03:59:07;;;;;;;;;;;13.80;99.90;;;;;;5009960;28;19975;-84
2021/10/27 04:01:32;;;;;;;;;;;13.90;99.90;;;;;;5008261;28;19970;-84
2021/10/27 04:03:58;;;;;;;;;;;13.80;99.90;;;;;;5009076;28;20333;-84
2021/10/27 04:06:24;;;;;;;;;;;13.90;99.90;;;;;;5009574;28;19920;-86
2021/10/27 04:08:49;;;;;;;;;;;13.90;99.90;;;;;;5007970;28;19936;-84
2021/10/27 04:11:15;;;;;;;;;;;13.90;99.90;;;;;;5026313;28;20013;-85
2021/10/27 04:13:41;;;;;;;;;;;13.90;99.90;;;;;;5008044;28;19979;-85
2021/10/27 04:16:06;;;;;;;;;;;13.90;99.90;;;;;;5025779;28;19921;-86
2021/10/27 04:18:32;;;;;;;;;;;13.90;99.90;;;;;;5007679;28;19928;-85
2021/10/27 04:20:58;;;;;;;;;;;13.90;99.90;;;;;;5009264;28;19921;-83
2021/10/27 04:23:24;;;;;;;;;;;13.90;99.90;;;;;;5008871;28;19921;-84
2021/10/27 04:25:49;;;;;;;;;;;13.90;99.90;;;;;;5008191;28;19921;-84
2021/10/27 04:28:15;;;;;;;;;;;13.90;99.90;;;;;;5025580;28;20371;-85
2021/10/27 04:30:41;;;;;;;;;;;14.00;99.90;;;;;;5024004;28;19925;-84
2021/10/27 04:33:16;;;;;;;;;;;14.00;99.90;;;;;;5026132;28;19928;-84
2021/10/27 04:35:42;;;;;;;;;;;14.00;99.90;;;;;;5007813;28;19921;-84
2021/10/27 04:38:08;;;;;;;;;;;14.00;99.90;;;;;;5025344;28;20964;-84
2021/10/27 04:40:33;;;;;;;;;;;14.00;99.90;;;;;;4994970;28;19932;-82
2021/10/27 04:42:59;;;;;;;;;;;14.00;99.90;;;;;;4996514;28;19932;-82
2021/10/27 04:45:25;;;;;;;;;;;14.00;99.90;;;;;;5012914;28;20418;-83
2021/10/27 04:47:51;;;;;;;;;;;14.00;99.90;;;;;;5027853;28;19967;-83
2021/10/27 04:50:17;;;;;;;;;;;14.00;99.90;;;;;;5029034;28;19968;-83
2021/10/27 04:52:42;;;;;;;;;;;14.00;99.90;;;;;;5027339;28;20391;-83
2021/10/27 04:55:08;;;;;;;;;;;14.00;99.90;;;;;;5013265;28;19929;-83
2021/10/27 04:57:34;;;;;;;;;;;14.00;99.90;;;;;;5027936;28;20218;-83
2021/10/27 04:59:59;;;;;;;;;;;14.00;99.90;;;;;;5012198;28;20290;-84
2021/10/27 05:02:25;;;;;;;;;;;14.00;99.90;;;;;;5012281;28;20003;-84
2021/10/27 05:04:51;;;;;;;;;;;14.10;99.90;;;;;;5027760;28;19928;-84
2021/10/27 05:07:18;;;;;;;;;;;14.00;99.90;;;;;;5028960;28;20364;-86
2021/10/27 05:09:44;;;;;;;;;;;14.00;99.90;;;;;;5010947;28;19948;-85
2021/10/27 05:12:10;;;;;;;;;;;14.00;99.90;;;;;;5029246;28;19925;-83
2021/10/27 05:14:36;;;;;;;;;;;14.00;99.90;;;;;;5027927;28;20006;-83
2021/10/27 05:17:06;;;;;;;;;;;14.00;99.90;;;;;;5029171;28;19921;-83
2021/10/27 05:19:31;;;;;;;;;;;14.00;99.90;;;;;;5011890;28;19921;-83
2021/10/27 05:21:57;;;;;;;;;;;14.10;99.90;;;;;;5011173;28;19921;-83
2021/10/27 05:24:22;;;;;;;;;;;14.10;99.90;;;;;;5028847;28;19921;-83
2021/10/27 05:26:48;;;;;;;;;;;14.10;99.90;;;;;;5010697;28;19960;-84
2021/10/27 05:29:14;;;;;;;;;;;14.10;99.90;;;;;;5029266;28;19921;-83
2021/10/27 05:31:39;;;;;;;;;;;14.10;99.90;;;;;;5026488;28;19931;-83
2021/10/27 05:34:05;;;;;;;;;;;14.10;99.90;;;;;;5012879;28;19928;-83
2021/10/27 05:36:31;;;;;;;;;;;14.10;99.90;;;;;;5010545;28;20297;-82
2021/10/27 05:38:57;;;;;;;;;;;14.10;99.90;;;;;;5028087;28;19981;-82
2021/10/27 05:41:23;;;;;;;;;;;14.10;99.90;;;;;;5011764;28;19964;-82
2021/10/27 05:43:48;;;;;;;;;;;14.10;99.90;;;;;;5010373;28;19932;-82
2021/10/27 05:46:17;;;;;;;;;;;14.10;99.90;;;;;;5028379;28;19921;-83
2021/10/27 05:48:45;;;;;;;;;;;14.10;99.90;;;;;;5010236;28;19975;-83
2021/10/27 05:51:20;;;;;;;;;;;14.10;99.90;;;;;;5011630;28;19938;-83
2021/10/27 05:56:30;;;;;;;;;;;14.10;99.90;;;;;;5027707;28;20020;-82
2021/10/27 05:58:55;;;;;;;;;;;14.10;99.90;;;;;;5011596;28;20003;-83
2021/10/27 06:01:21;;;;;;;;;;;14.00;99.90;;;;;;5029145;28;20393;-82
2021/10/27 06:03:47;;;;;;;;;;;14.00;99.90;;;;;;5013217;28;19921;-83
2021/10/27 06:06:12;;;;;;;;;;;14.00;99.90;;;;;;5012628;28;19925;-84
2021/10/27 06:08:38;;;;;;;;;;;14.00;99.90;;;;;;5012636;28;19944;-83
2021/10/27 06:11:09;;;;;;;;;;;14.00;99.90;;;;;;4996701;28;19931;-83
2021/10/27 06:13:37;;;;;;;;;;;14.00;99.90;;;;;;5029496;28;19928;-83
2021/10/27 06:16:03;;;;;;;;;;;14.00;99.90;;;;;;5013617;28;19927;-83
2021/10/27 06:18:29;;;;;;;;;;;14.00;99.90;;;;;;4995829;28;20363;-83
2021/10/27 06:20:54;;;;;;;;;;;14.00;99.90;;;;;;5029205;28;19921;-83
2021/10/27 06:23:22;;;;;;;;;;;14.00;99.90;;;;;;5012491;28;19924;-83
2021/10/27 06:25:49;;;;;;;;;;;14.00;99.90;;;;;;5012784;28;20366;-83
2021/10/27 06:28:20;;;;;;;;;;;14.00;99.90;;;;;;5029072;28;20353;-82
2021/10/27 06:36:05;;;;;;;;;;;14.00;99.90;;;;;;5028021;28;20290;-84
2021/10/27 06:46:38;;;;;;;;;;;14.00;99.90;;;;;;5029645;28;19944;-83
2021/10/27 06:49:04;;;;;;;;;;;14.00;99.90;;;;;;4995774;28;19920;-83
2021/10/27 06:51:30;;;;;;;;;;;14.00;99.90;;;;;;5012857;28;19925;-83
2021/10/27 06:53:55;;;;;;;;;;;14.00;99.90;;;;;;5011567;28;19921;-83
2021/10/27 06:56:22;;;;;;;;;;;14.00;99.90;;;;;;5012527;28;20019;-83
2021/10/27 06:58:58;;;;;;;;;;;14.00;99.90;;;;;;5021875;28;19925;-83
2021/10/27 07:01:27;;;;;;;;;;;14.00;99.90;;;;;;5028166;28;19920;-84
2021/10/27 07:16:56;;;;;;;;;;;14.20;99.90;;;;;;5024007;28;19932;-83
2021/10/27 07:19:22;;;;;;;;;;;14.20;99.90;;;;;;5027331;28;19920;-82
2021/10/27 07:21:48;;;;;;;;;;;14.20;99.90;;;;;;5025706;28;19921;-81
2021/10/27 07:24:15;;;;;;;;;;;14.20;99.90;;;;;;5026413;28;19928;-83
2021/10/27 07:26:41;;;;;;;;;;;14.20;99.90;;;;;;5027783;28;19924;-82
2021/10/27 07:29:06;;;;;;;;;;;14.20;99.90;;;;;;5027582;28;19921;-81
2021/10/27 07:31:32;;;;;;;;;;;14.20;99.90;;;;;;5011157;28;19944;-83
2021/10/27 07:34:10;;;;;;;;;;;14.20;99.90;;;;;;5027429;28;19971;-83
2021/10/27 07:42:05;;;;;;;;;;;14.20;99.90;;;;;;5027453;28;19924;-85
2021/10/27 07:44:30;;;;;;;;;;;14.30;99.90;;;;;;5027595;28;19966;-85
2021/10/27 07:46:56;;;;;;;;;;;14.30;99.90;;;;;;5027635;28;19997;-85
2021/10/27 07:49:22;;;;;;;;;;;14.30;99.90;;;;;;5026791;28;19920;-85
2021/10/27 07:51:50;;;;;;;;;;;14.30;99.90;;;;;;5028295;28;19929;-85
2021/10/27 07:54:15;;;;;;;;;;;14.30;99.90;;;;;;5010771;28;19947;-85
2021/10/27 07:56:41;;;;;;;;;;;14.40;99.90;;;;;;5028198;28;20332;-85
2021/10/27 07:59:07;;;;;;;;;;;14.30;99.90;;;;;;5009830;28;20493;-84
2021/10/27 08:01:33;;;;;;;;;;;14.30;99.90;;;;;;5027154;28;20397;-86
2021/10/27 08:03:59;;;;;;;;;;;14.40;99.90;;;;;;5010881;28;19921;-86
2021/10/27 08:06:24;;;;;;;;;;;14.40;99.90;;;;;;5026897;28;20374;-85
2021/10/27 08:08:50;;;;;;;;;;;14.30;99.90;;;;;;5026928;28;20004;-86
2021/10/27 08:11:16;;;;;;;;;;;14.40;99.90;;;;;;5026116;28;19951;-85
2021/10/27 08:13:42;;;;;;;;;;;14.40;99.90;;;;;;5011244;28;19967;-86
2021/10/27 08:16:08;;;;;;;;;;;14.40;99.90;;;;;;5026560;28;19924;-86
2021/10/27 08:18:34;;;;;;;;;;;14.40;99.90;;;;;;5011161;28;20057;-86
2021/10/27 08:20:59;;;;;;;;;;;14.50;99.90;;;;;;5010336;28;19924;-87
2021/10/27 08:23:30;;;;;;;;;;;14.50;99.90;;;;;;4993943;28;19995;-87
2021/10/27 08:25:57;;;;;;;;;;;14.50;99.90;;;;;;5011264;28;19947;-87
2021/10/27 08:34:11;;;;;;;;;;;14.50;99.90;;;;;;5026783;28;19924;-87
2021/10/27 08:36:37;;;;;;;;;;;14.50;99.90;;;;;;5009640;28;19974;-87
2021/10/27 08:39:04;;;;;;;;;;;14.60;99.90;;;;;;5026931;28;19998;-87
2021/10/27 08:41:32;;;;;;;;;;;14.60;99.90;;;;;;5026215;28;19929;-87
2021/10/27 08:43:59;;;;;;;;;;;14.60;99.90;;;;;;5027308;28;19951;-87
2021/10/27 08:46:25;;;;;;;;;;;14.60;99.90;;;;;;5026219;28;19921;-87
2021/10/27 08:48:52;;;;;;;;;;;14.60;99.90;;;;;;5023104;28;19928;-87
2021/10/27 08:51:18;;;;;;;;;;;14.70;99.90;;;;;;5009932;28;19974;-87
2021/10/27 08:53:44;;;;;;;;;;;14.70;99.90;;;;;;5026896;28;19972;-84
2021/10/27 08:56:10;;;;;;;;;;;14.80;99.90;;;;;;5026841;28;19929;-87
2021/10/27 09:04:45;;;;;;;;;;;14.70;99.90;;;;;;5021981;28;19974;-86
2021/10/27 09:44:18;;;;;;;;;;;14.90;99.90;;;;;;5030004;28;19921;-86
2021/10/27 10:06:18;;;;;;;;;;;15.00;99.90;;;;;;5029544;28;19920;-84
2021/10/27 10:08:45;;;;;;;;;;;15.00;99.90;;;;;;5029519;28;19928;-83
2021/10/27 10:11:11;;;;;;;;;;;15.00;99.90;;;;;;5028327;28;20039;-84
2021/10/27 10:13:38;;;;;;;;;;;15.00;99.90;;;;;;5012250;28;20008;-84
2021/10/27 10:16:03;;;;;;;;;;;15.10;99.90;;;;;;5026919;28;19921;-85
2021/10/27 10:18:29;;;;;;;;;;;15.10;99.90;;;;;;5029325;28;19932;-85
2021/10/27 10:20:55;;;;;;;;;;;15.10;99.90;;;;;;5028389;28;20023;-85
2021/10/27 10:23:22;;;;;;;;;;;15.20;99.90;;;;;;5045080;28;19924;-85
2021/10/27 10:25:49;;;;;;;;;;;15.20;99.90;;;;;;5012358;28;19927;-85
2021/10/27 10:28:16;;;;;;;;;;;15.30;99.90;;;;;;5014888;28;19931;-85
2021/10/27 10:30:50;;;;;;;;;;;15.30;99.90;;;;;;5028859;28;19924;-85
2021/10/27 10:33:16;;;;;;;;;;;15.40;99.90;;;;;;5027647;28;20358;-85
2021/10/27 10:39:11;;;;;;;;;;;15.50;99.90;;;;;;5025761;28;19966;-85
2021/10/27 10:44:34;;;;;;;;;;;15.60;99.90;;;;;;5025804;28;19920;-85
2021/10/27 10:56:55;;;;;;;;;;;15.70;99.90;;;;;;5041199;28;20130;-84
2021/10/27 11:24:22;;;;;;;;;;;16.10;99.90;;;;;;5022961;28;20333;-84
2021/10/27 11:38:06;;;;;;;;;;;16.10;99.90;;;;;;5027156;28;19966;-83
2021/10/27 11:40:42;;;;;;;;;;;16.10;99.90;;;;;;5011884;28;19927;-83
2021/10/27 11:48:21;;;;;;;;;;;16.00;99.90;;;;;;5025508;28;19947;-83
2021/10/27 11:50:48;;;;;;;;;;;16.00;99.90;;;;;;5027299;28;20251;-83
2021/10/27 11:53:19;;;;;;;;;;;16.00;99.90;;;;;;5010665;28;19921;-83
2021/10/27 11:55:44;;;;;;;;;;;15.90;99.90;;;;;;5024327;28;19920;-84
2021/10/27 11:58:10;;;;;;;;;;;15.90;99.90;;;;;;5026440;28;19951;-84
2021/10/27 12:00:38;;;;;;;;;;;15.90;99.90;;;;;;5026567;28;19971;-84
2021/10/27 12:03:08;;;;;;;;;;;15.90;99.90;;;;;;5027379;28;20050;-84
2021/10/27 12:19:11;;;;;;;;;;;15.80;99.90;;;;;;5024935;28;19924;-82
2021/10/27 12:21:37;;;;;;;;;;;15.80;99.90;;;;;;5024854;28;20043;-83
2021/10/27 12:24:03;;;;;;;;;;;15.80;99.90;;;;;;5010201;28;19947;-84
2021/10/27 12:26:50;;;;;;;;;;;15.80;99.90;;;;;;5028628;28;20285;-83
2021/10/27 12:29:28;;;;;;;;;;;15.90;99.90;;;;;;5026113;28;20062;-83
2021/10/27 12:32:08;;;;;;;;;;;16.00;99.90;;;;;;5027255;28;19971;-83
2021/10/27 12:34:45;;;;;;;;;;;16.00;99.90;;;;;;5025802;28;19925;-82
2021/10/27 12:37:33;;;;;;;;;;;16.00;99.90;;;;;;5025536;28;19932;-82
2021/10/27 12:40:13;;;;;;;;;;;16.00;99.90;;;;;;5025198;28;20415;-83
2021/10/27 12:42:38;;;;;;;;;;;16.00;99.90;;;;;;5023392;28;19921;-82
2021/10/27 12:45:06;;;;;;;;;;;16.00;99.90;;;;;;5026523;28;19936;-83
2021/10/27 12:47:33;;;;;;;;;;;16.00;99.90;;;;;;5027921;28;19932;-83
2021/10/27 12:50:10;;;;;;;;;;;16.00;99.90;;;;;;5026622;28;19927;-82
2021/10/27 12:52:41;;;;;;;;;;;16.00;99.90;;;;;;5008135;28;19978;-82
2021/10/27 12:55:10;;;;;;;;;;;16.00;99.90;;;;;;5009341;28;19974;-83
2021/10/27 12:57:42;;;;;;;;;;;16.10;99.90;;;;;;5025207;28;20277;-83
2021/10/27 13:00:15;;;;;;;;;;;16.00;99.90;;;;;;5024559;28;19928;-83
2021/10/27 13:02:48;;;;;;;;;;;16.00;99.90;;;;;;5043951;28;19978;-82
2021/10/27 13:05:26;;;;;;;;;;;16.00;99.90;;;;;;5028955;28;19928;-83
2021/10/27 13:07:58;;;;;;;;;;;16.10;99.90;;;;;;5030015;28;19921;-83
2021/10/27 13:13:16;;;;;;;;;;;16.00;99.90;;;;;;5014725;28;20345;-83
2021/10/27 13:16:11;;;;;;;;;;;16.00;99.90;;;;;;5000969;28;20004;-82
2021/10/27 13:18:48;;;;;;;;;;;16.00;99.90;;;;;;5030016;28;20014;-83
2021/10/27 13:31:58;;;;;;;;;;;15.90;99.90;;;;;;5019509;28;19927;-83
2021/10/27 13:34:24;;;;;;;;;;;15.80;99.90;;;;;;5012482;28;19927;-82
2021/10/27 13:36:50;;;;;;;;;;;15.80;99.90;;;;;;5029906;28;20019;-82
2021/10/27 13:39:16;;;;;;;;;;;15.70;99.90;;;;;;5028839;28;19967;-83
2021/10/27 13:41:46;;;;;;;;;;;15.80;99.90;;;;;;5029462;28;19925;-83
2021/10/27 13:44:25;;;;;;;;;;;15.70;99.90;;;;;;5029868;28;19928;-82
2021/10/27 13:47:42;;;;;;;;;;;15.70;99.90;;;;;;5030448;28;20011;-83
2021/10/27 14:09:09;;;;;;;;;;;15.50;99.90;;;;;;5029339;28;20311;-82
2021/10/27 14:12:23;;;;;;;;;;;15.40;99.90;;;;;;5029095;28;19928;-82
2021/10/27 14:14:33;;;;;;;;;;;15.40;99.90;;;;;;5018147;28;20154;-82
2021/10/27 15:19:52;;;;;;;;;;;14.90;99.90;;;;;;5023519;28;19969;-83
2021/10/27 15:22:42;;;;;;;;;;;14.90;99.90;;;;;;5024828;28;19920;-83
2021/10/27 15:30:43;;;;;;;;;;;14.80;99.90;;;;;;5025487;28;19936;-83
2021/10/27 15:33:22;;;;;;;;;;;14.90;99.90;;;;;;5024181;28;19925;-84
2021/10/27 15:51:50;;;;;;;;;;;14.70;99.90;;;;;;5027708;28;20260;-83
2021/10/27 15:54:16;;;;;;;;;;;14.60;99.90;;;;;;5026549;28;20456;-83
2021/10/27 15:56:42;;;;;;;;;;;14.70;99.90;;;;;;5010829;28;19925;-84
2021/10/27 15:59:08;;;;;;;;;;;14.60;99.90;;;;;;5027482;28;19920;-83
2021/10/27 16:01:34;;;;;;;;;;;14.60;99.90;;;;;;5026189;28;19928;-83
2021/10/27 16:03:59;;;;;;;;;;;14.60;99.90;;;;;;5028372;28;19925;-83
2021/10/27 16:06:27;;;;;;;;;;;14.60;99.90;;;;;;4993705;28;20263;-83
2021/10/27 16:08:55;;;;;;;;;;;14.60;99.90;;;;;;5027966;28;20341;-83
2021/10/27 16:11:21;;;;;;;;;;;14.60;99.90;;;;;;4989075;28;19990;-84
2021/10/27 16:13:46;;;;;;;;;;;14.60;99.90;;;;;;5023842;28;19920;-83
2021/10/27 16:16:12;;;;;;;;;;;14.60;99.90;;;;;;5023869;28;20210;-83
2021/10/27 16:18:38;;;;;;;;;;;14.60;99.90;;;;;;5023701;28;19966;-83
2021/10/27 16:21:03;;;;;;;;;;;14.50;99.90;;;;;;5008420;28;20180;-83
2021/10/27 16:23:29;;;;;;;;;;;14.50;99.90;;;;;;5024158;28;20340;-84
2021/10/27 16:25:55;;;;;;;;;;;14.50;99.90;;;;;;5024571;28;19920;-83
2021/10/27 16:28:21;;;;;;;;;;;14.50;99.90;;;;;;5024219;28;19920;-83
2021/10/27 16:30:47;;;;;;;;;;;14.50;99.90;;;;;;5025408;28;20225;-83
2021/10/27 16:33:14;;;;;;;;;;;14.50;99.90;;;;;;4991030;28;19954;-83
2021/10/27 16:35:40;;;;;;;;;;;14.50;99.90;;;;;;5026148;28;19924;-83
2021/10/27 16:38:06;;;;;;;;;;;14.50;99.90;;;;;;5029017;28;19972;-84
2021/10/27 16:40:32;;;;;;;;;;;14.40;99.90;;;;;;5027918;28;19931;-82
2021/10/27 16:42:58;;;;;;;;;;;14.40;99.90;;;;;;5013246;28;19924;-83
2021/10/27 16:45:24;;;;;;;;;;;14.40;99.90;;;;;;5027996;28;20386;-83
2021/10/27 16:47:50;;;;;;;;;;;14.40;99.90;;;;;;5028797;28;19925;-83
2021/10/27 16:50:16;;;;;;;;;;;14.40;99.90;;;;;;5011549;28;19929;-82
2021/10/27 16:52:46;;;;;;;;;;;14.40;99.90;;;;;;5028304;28;19971;-83
2021/10/27 16:55:18;;;;;;;;;;;14.40;99.90;;;;;;5028477;28;19924;-83
2021/10/27 16:57:45;;;;;;;;;;;14.40;99.90;;;;;;5020946;28;19924;-83
2021/10/27 17:00:11;;;;;;;;;;;14.40;99.90;;;;;;5028898;28;19978;-83
2021/10/27 17:02:36;;;;;;;;;;;14.30;99.90;;;;;;5023379;28;19921;-83
2021/10/27 17:05:02;;;;;;;;;;;14.30;99.90;;;;;;5026417;28;20236;-83
2021/10/27 17:07:28;;;;;;;;;;;14.30;99.90;;;;;;5024004;28;19921;-83
2021/10/27 17:09:53;;;;;;;;;;;14.30;99.90;;;;;;5025350;28;20424;-83
2021/10/27 17:12:19;;;;;;;;;;;14.30;99.90;;;;;;5008470;28;19967;-83
2021/10/27 17:14:45;;;;;;;;;;;14.30;99.90;;;;;;5008405;28;19921;-83
2021/10/27 17:17:10;;;;;;;;;;;14.30;99.90;;;;;;5024887;28;19925;-83
2021/10/27 17:19:36;;;;;;;;;;;14.20;99.90;;;;;;5007601;28;19924;-83
2021/10/27 17:22:03;;;;;;;;;;;14.20;99.90;;;;;;5009175;28;19931;-83
2021/10/27 17:24:29;;;;;;;;;;;14.20;99.90;;;;;;5024595;28;19921;-84
2021/10/27 17:26:57;;;;;;;;;;;14.20;99.90;;;;;;5008662;28;20143;-83
2021/10/27 17:29:24;;;;;;;;;;;14.20;99.90;;;;;;4991313;28;19921;-83
2021/10/27 17:31:49;;;;;;;;;;;14.20;99.90;;;;;;5024277;28;19976;-83
2021/10/27 17:34:15;;;;;;;;;;;14.20;99.90;;;;;;5008654;28;20183;-83
2021/10/27 17:36:41;;;;;;;;;;;14.20;99.90;;;;;;5007283;28;19975;-83
2021/10/27 17:39:06;;;;;;;;;;;14.20;99.90;;;;;;4992594;28;19921;-83
2021/10/27 17:41:33;;;;;;;;;;;14.10;99.90;;;;;;5023585;28;19925;-83
2021/10/27 17:43:59;;;;;;;;;;;14.10;99.90;;;;;;5024866;28;19990;-83
2021/10/27 17:46:45;;;;;;;;;;;14.10;99.90;;;;;;5022604;28;20379;-83
2021/10/27 17:49:34;;;;;;;;;;;14.10;99.90;;;;;;5022685;28;20379;-83
2021/10/27 17:52:09;;;;;;;;;;;14.10;99.90;;;;;;5023638;28;19921;-83
2021/10/27 17:59:56;;;;;;;;;;;14.10;99.90;;;;;;5022941;28;19936;-83
2021/10/27 18:02:23;;;;;;;;;;;14.00;99.90;;;;;;5023543;28;20082;-84
2021/10/27 18:04:50;;;;;;;;;;;14.00;99.90;;;;;;5023820;28;19935;-83
2021/10/27 18:07:20;;;;;;;;;;;14.10;99.90;;;;;;4989869;28;20157;-83
2021/10/27 18:09:46;;;;;;;;;;;14.00;99.90;;;;;;5024073;28;20182;-83
2021/10/27 18:12:12;;;;;;;;;;;14.00;99.90;;;;;;5007288;28;20341;-83
2021/10/27 18:14:38;;;;;;;;;;;14.00;99.90;;;;;;5024326;28;20013;-82
2021/10/27 18:17:06;;;;;;;;;;;13.90;99.90;;;;;;5023544;28;19991;-83
2021/10/27 18:19:48;;;;;;;;;;;13.90;99.90;;;;;;5024156;28;19925;-82
2021/10/27 18:38:42;;;;;;;;;;;13.80;99.90;;;;;;4991697;28;19921;-83
2021/10/27 18:41:16;;;;;;;;;;;13.80;99.90;;;;;;4994266;28;19925;-83
2021/10/27 18:43:42;;;;;;;;;;;13.70;99.90;;;;;;5023615;28;19921;-83
2021/10/27 18:46:08;;;;;;;;;;;13.70;99.90;;;;;;5006840;28;19928;-83
2021/10/27 18:48:36;;;;;;;;;;;13.70;99.90;;;;;;4991488;28;19925;-83
2021/10/27 18:51:04;;;;;;;;;;;13.70;99.90;;;;;;5025651;28;20328;-83
2021/10/27 19:17:21;;;;;;;;;;;12.90;99.90;;;;;;5022503;28;19929;-83
2021/10/27 19:19:47;;;;;;;;;;;12.90;99.90;;;;;;5022904;28;20343;-83
2021/10/27 19:22:13;;;;;;;;;;;12.80;99.90;;;;;;5022720;28;19928;-83
2021/10/27 19:24:51;;;;;;;;;;;12.70;99.90;;;;;;5014398;28;19929;-83
2021/10/27 19:27:24;;;;;;;;;;;12.70;99.90;;;;;;5023187;28;19920;-83
2021/10/27 20:04:44;;;;;;;;;;;12.50;99.90;;;;;;5021642;28;19979;-83
2021/10/27 20:13:12;;;;;;;18.25;10.80;;;12.30;99.90;;;;;;5055845;28;20135;-81
2021/10/27 20:29:18;;;;;;;18.85;14.50;;;12.10;99.90;;;;;;5025093;28;20044;-81
2021/10/27 20:53:23;;;;;;;30.58;15.80;;;11.70;99.90;;;;;;5025860;28;20052;-80
2021/10/27 20:55:51;;;;;;;34.67;15.15;;;11.70;99.90;;;;;;5027840;28;20120;-81
2021/10/27 21:01:22;;;;;;;31.63;16.50;;;11.60;99.90;;;;;;5015145;28;20037;-81
2021/10/27 21:14:42;;;;;;;33.95;17.30;;;11.60;99.90;;;;;;5019560;28;20482;-80
2021/10/27 21:17:08;;;;;;;31.70;17.23;;;11.60;99.90;;;;;;5012251;28;20049;-81
2021/10/27 21:19:35;;;;;;;49.47;18.45;;;11.60;99.90;;;;;;5028005;28;20494;-81
2021/10/27 21:22:02;;;;;;;33.33;17.83;;;11.70;99.90;;;;;;5007814;28;20049;-81